Matteo Friso

C.U.S. PADOVA
27-02-1990


Informazioni sul tesseramento aggiornate al 2019


Condividi con
Seguici su:


300 METRI

Anno Data Tipo Cr. Cat. Piazz. Prestaz. Vento Città  
200515/07PECM4 se- 1 42.63Bussolengo
200507/05PMCM3 se- 2 44.1Padova Voltabarozzo
 

400 metri

Anno Data Tipo Cr. Cat. Piazz. Prestaz. Vento Città  
200912/09PEJM6 se- 1 57.49Copparo
 

800 METRI

Anno Data Tipo Cr. Cat. Piazz. Prestaz. Vento Città  
200917/05PEJM4 se- 3 2:01.36Vicenza
200714/07PEAM4 se- 4 2:03.17Bussolengo
200731/07PEAM8 se- 3 2:03.18Trento
200826/04PEJM3 se- 2 2:03.63Piombino Dese
200814/09PEJM9 se- 1 2:03.86Padova
201001/05PEPM4 se- 2 2:03.97Voltabarozzo
200727/05PMAM3 se- 1 2:04.0Abano Terme
200713/05PEAM6 se- 1 2:06.05Vicenza
201020/08PMPM3 se- 1 2:06.5Cortina D'ampezzo
200728/04PEAM3 se- 1 2:07.02Borgoricco
201028/08PEPM8 se- 3 2:08.18Trento
200618/06PEAM6 se- 4 2:09.09Ferrara
200621/09PEAM1 se- 2 2:09.56Mestre Venezia
200615/06PEAM7 su- 1 2:09.91Mestre
200628/05PEAM7 se- 1 2:10.04Vicenza
200608/04PEAM2 su- 1 2:10.83Verona
 

1000 metri

Anno Data Tipo Cr. Cat. Piazz. Prestaz. Vento Città  
200504/09PECM2 su- 1 2:52.72Riese Pio X
200513/07PMCM4 su- 1 2:53.3Montebelluna
200508/10PMCM1 su- 1 2:53.7Padova
200517/09PMCM11 se- 1 2:54.0Tezze Sul Brenta
200504/06PMCM5 se- 1 2:55.2Abano Terme
200509/10PMCM2 su- 1 2:55.6Rovigo
200531/08PMCM3 su- 1 2:55.7Padova Voltabarozzo
200524/06PMCM5 su- 1 2:55.9Abano Terme
200511/09PECM8 se- 1 2:57.05Rossano Veneto
200523/04PMCM2 se- 1 2:57.1Padova
200514/05PMCM3 su- 1 2:58.5Padova
200511/06PMCM1 su- 1 3:01.6Padova
201912/07PESM27 se-36 3:11.80Monaco Montecarlo
 

1500 METRI

Anno Data Tipo Cr. Cat. Piazz. Prestaz. Vento Città  
200901/05PEJM8 se- 1 4:07.36Padova
200916/05PEJM13 se- 1 4:11.05Vicenza
200724/07PEAM3 se- 3 4:12.86Trento
200722/09PEAM4 su- 1 4:13.00Vedelago
200726/05PEAM2 su- 1 4:13.61Abano Terme
201018/04PEPM16 se- 1 4:13.73Treviso
200801/05PEJM8 se- 1 4:16.31Padova
200730/06PEAM5 se- 1 4:16.52Roma
200717/08PEAM3 se- 2 4:17.14Cortina
200828/06PEJM13 se- 2 4:17.49Villafranca Di Verona
200817/05PEJM1 se- 3 4:18.38Marcon
200705/09PEAM13 se- 1 4:19.57Pous D Alpago
200805/07PEJM9 su- 1 4:19.95Nove
200722/06PEAM1 se- 1 4:19.95Abano Terme
200823/08PEJM3 se- 2 4:20.15Cortina
200807/06PEJM1 su- 1 4:20.42Caorle
200715/09PEAM7 su- 1 4:20.49Vicenza
200701/05PEAM1 se- 2 4:20.90Padova
200930/05PEJM13 se- 1 4:23.51Mogliano Veneto
200601/05PEAM2 se- 2 4:25.51Padova
200909/05PEJM10 se- 1 4:25.62Treviso
200612/07PEAM14 se- 1 4:27.37Vicenza
200610/09PEAM5 se- 1 4:30.16Rossano Veneto
200714/04PEAM5 se- 1 4:30.46Piombino Dese
200622/04PEAM5 se- 1 4:31.41Piombino Dese
200625/04PEAM5 su- 1 4:32.59Conegliano
200627/05PEAM8 se- 1 4:33.18Vicenza
200616/09PMAM6 se- 1 4:34.2Mestre Venezia
 

2000 METRI

Anno Data Tipo Cr. Cat. Piazz. Prestaz. Vento Città  
200518/09PMCM7 se- 1 6:23.1Tezze Sul Brenta
200505/06PMCM5 su- 1 6:27.1Abano Terme
200524/09PMCM1 su- 1 6:29.2Piombino Dese
200522/05PMCM1 su- 1 6:36.9Padova
200507/05PMCM1 su- 1 6:39.2Padova Voltabarozzo
200502/04PMCM3 se- 1 6:40.0Padova
 

3000 metri

Anno Data Tipo Cr. Cat. Piazz. Prestaz. Vento Città  
200701/09PMAM10 su- 1 9:13.8Noale
200716/09PEAM5 su- 1 9:16.95Vicenza
200707/10PEAM15 se- 1 9:18.86Cesenatico
200805/08PEJM11 se- 3 9:45.77Trento
 

5000 metri

Anno Data Tipo Cr. Cat. Piazz. Prestaz. Vento Città  
200802/06PEJM19 su- 1 16:49.93Marcon
200808/06PEJM3 su- 1 16:52.04Caorle
 

Attenzione: le schede-atleti sono composte automaticamente sulla base dei dati inseriti all'interno degli archivi nazionali aggiornati dal 2005 al 18-11-2019. Se un risultato non compare nelle graduatorie, quindi, è segno che lo stesso, con ogni probabilità, non è stato ancora inserito. Il processo di inserimento è di competenza dei Comitati Regionali sul cui territorio ha avuto luogo la manifestazione: eventuali segnalazioni per errori od omissioni, vanno dunque indirizzate agli stessi (potete utilizzare l'elenco con relativi contatti). Considerato però che solo le principali manifestazioni nazionali sono oggetto di inserimenti "in diretta" (sul posto di gara), mentre le altre, incluse le internazionali in programma all'estero, vengono inserite in tempi successivi, è opportuno attendere un ragionevole lasso di tempo prima di procedere ad una segnalazione.

Stickers


Non ventosi

GaraTipoPrestazioneVentoAnnoCittà
300 METRIPista 42.632005Bussolengo
300 METRIPista 44.12005Padova Voltabarozzo
400 metriPista 57.492009Copparo
800 METRIPista 2:01.362009Vicenza
1000 metriPista 2:52.722005Riese Pio X
1500 METRIPista 4:07.362009Padova
2000 METRIPista 6:23.12005Tezze Sul Brenta
3000 metriPista 9:13.82007Noale
5000 metriPista 16:49.932008Marcon

AnnoTipo mov.CategoriaSocietà
2019RinnovoSeniores MaschileC.U.S. PADOVA
2018NuovoSeniores MaschileC.U.S. PADOVA
2014RinnovoSeniores MaschileC.U.S. PADOVA
2013NuovoSeniores MaschileC.U.S. PADOVA
2010RinnovoPromesse MaschileC.U.S. PADOVA
2009RinnovoJuniores MaschileC.U.S. PADOVA
2008RinnovoJuniores MaschileC.U.S. PADOVA
2007TrasferimentoAllieviC.U.S. PADOVA
2006RinnovoAllieviATLETICA VIS ABANO
2005RinnovoCadettiATLETICA VIS ABANO
2004NuovoCadettiATL.VIS ABANO